Montrose, Minnesota
Current Conditions -  °F | °C
As of 1:14 AM on Friday 19 Dec 2014 (Local Time) from KCFE Reporting Station
Overcast Overcast  
Wind Chill: 21°   Ceiling: 4600
Heat Index: 21°   Visibility: 10mi
Dew Point: 16°   Wind: 3mph
Humidity: 81%   Direction: 140°SE
Pressure: 30.27"   Gusts: NA
Location:  45.06°N, 93.91°W
Report Text: KCFE 190714Z AUTO 14003KT 10SM BKN046 BKN070 OVC080 M06/M09 A3027 RMK AO2 T10621090
Loading
Personal Weather Stations






























Interactive Weather Map New forecast layout! Learn more

10-Day Weather Forecast

Advertisements
Track Severe Weather on mobile